createdAt,value
2023-02-12T00:01:38.211Z,21.9
2023-02-12T00:16:47.309Z,23.4
2023-02-12T00:31:57.670Z,19.6
2023-02-12T00:47:07.263Z,25
2023-02-12T01:02:16.840Z,24
2023-02-12T01:17:26.289Z,20
2023-02-12T01:32:35.941Z,23.7
2023-02-12T01:47:45.262Z,29.9
2023-02-12T02:02:55.085Z,21.2
2023-02-12T02:18:06.464Z,22.8
2023-02-12T02:33:15.881Z,27.4
2023-02-12T02:48:25.171Z,27
2023-02-12T03:03:34.951Z,26.1
2023-02-12T03:18:44.849Z,21.5
2023-02-12T03:33:54.236Z,28.9
2023-02-12T03:49:03.981Z,23.6
2023-02-12T04:04:13.654Z,19.6
2023-02-12T04:19:23.017Z,18.8
2023-02-12T04:34:32.356Z,22.5
2023-02-12T04:49:42.012Z,24.4
2023-02-12T05:04:51.717Z,25.5
2023-02-12T05:20:00.500Z,28
2023-02-12T05:35:09.935Z,26.5
2023-02-12T05:50:19.269Z,34.9
2023-02-12T06:05:29.305Z,42.2
2023-02-12T06:20:38.898Z,46
2023-02-12T06:35:48.555Z,50.4
2023-02-12T06:50:59.105Z,48.3
2023-02-12T07:06:08.555Z,51.7
2023-02-12T07:21:18.556Z,55.8
2023-02-12T07:36:28.055Z,52.5
2023-02-12T07:51:37.400Z,54.4
2023-02-12T08:06:47.420Z,63.4
2023-02-12T08:21:57.542Z,54.1
2023-02-12T08:37:07.286Z,63.2
2023-02-12T08:52:17.224Z,60.9
2023-02-12T09:07:27.769Z,69.2
2023-02-12T09:22:37.474Z,46.7
2023-02-12T09:37:47.488Z,40.6
2023-02-12T09:52:57.356Z,40.5
2023-02-12T10:08:08.337Z,36.4
2023-02-12T10:23:24.433Z,37.9
2023-02-12T10:38:34.340Z,42.9
2023-02-12T10:53:44.177Z,43.7
2023-02-12T11:08:53.581Z,32.7
2023-02-12T11:24:05.336Z,31.7
2023-02-12T11:39:14.857Z,34
2023-02-12T11:54:24.600Z,28.3
2023-02-12T12:09:34.113Z,28.9
2023-02-12T12:24:43.574Z,32.5
2023-02-12T12:39:52.910Z,26.3
2023-02-12T12:55:04.268Z,21.1
2023-02-12T13:10:13.968Z,18.6
2023-02-12T13:25:23.653Z,19.4
2023-02-12T13:40:33.264Z,17.8
2023-02-12T13:55:43.165Z,15.5
2023-02-12T14:10:52.958Z,15.6
2023-02-12T14:26:02.681Z,15.8
2023-02-12T14:41:12.127Z,16.5
2023-02-12T14:56:21.769Z,13
2023-02-12T15:11:31.560Z,10.4
2023-02-12T15:26:42.133Z,7.6
2023-02-12T15:41:51.834Z,8.1
2023-02-12T15:57:01.386Z,9.4
2023-02-12T16:12:10.999Z,6.7
2023-02-12T16:29:42.644Z,7.6
2023-02-12T16:44:54.019Z,9.2
2023-02-12T17:00:03.333Z,9.7
2023-02-12T17:15:13.030Z,11.2
2023-02-12T17:30:22.694Z,11.1
2023-02-12T17:45:32.582Z,8.6
2023-02-12T18:05:09.100Z,10
2023-02-12T18:20:21.813Z,9.1
2023-02-12T18:35:32.786Z,9.3
2023-02-12T18:50:42.198Z,18.1
2023-02-12T19:05:51.919Z,33.2
2023-02-12T19:21:01.423Z,12.7
2023-02-12T19:36:10.866Z,10.7
2023-02-12T19:51:20.712Z,13.3
2023-02-12T20:06:30.938Z,12.5
2023-02-12T20:21:40.570Z,13.3
2023-02-12T20:36:50.090Z,27.1
2023-02-12T20:51:59.731Z,14.8
2023-02-12T21:07:09.756Z,15.9
2023-02-12T21:22:19.241Z,17.8
2023-02-12T21:37:29.156Z,20.8
2023-02-12T21:52:38.750Z,18.2
2023-02-12T22:07:48.237Z,20.1
2023-02-12T22:22:57.637Z,19.8
2023-02-12T22:38:07.748Z,21
2023-02-12T22:53:17.581Z,21
2023-02-12T23:08:27.247Z,23.6
2023-02-12T23:23:37.057Z,23.8
2023-02-12T23:38:46.736Z,19.7
2023-02-12T23:53:56.136Z,19.7
